SBMO/MCZ METAR and TAF weather

Enter ICAO airport designator
Station Type Date Time Source
SBMO METAR 2021/09/27 06:00 UTC NOAA

SBMO 270600Z 12010KT 8000 -RA SCT020 BKN070 25/23 Q1016


Station Type Date Time Source
SBMO Decoded METAR 2021/09/27 06:00 UTC NOAA

Maceio Aeroporto , Brazil (SBMO) 09-31S 035-47W 115M
Sep 27, 2021 - 02:00 AM EDT / 2021.09.27 0600 UTC
Wind: from the ESE (120 degrees) at 12 MPH (10 KT):0
Visibility: 4 mile(s):0
Sky conditions: mostly cloudy
Weather: light rain
Temperature: 77 F (25 C)
Dew Point: 73 F (23 C)
Relative Humidity: 88%
Pressure (altimeter): 30.00 in. Hg (1016 hPa)
ob: SBMO 270600Z 12010KT 8000 -RA SCT020 BKN070 25/23 Q1016
cycle: 6

Station Type Date Time Source
SBMO TAF 2021/09/27 06:36 UTC NOAA

TAF SBMO 270230Z 2706/2806 32007KT 9999 SCT017 BKN030 TN24/2709Z TX29/2716Z
BECMG 2710/2712 12010KT BKN020
BECMG 2714/2716 14015KT 8000 BKN030
BECMG 2718/2720 12010KT 6000 RA SCT015 BKN030
TEMPO 2800/2806 16007KT 3000 RA BR SCT012 BKN020
RMK PGB

Example: see airport list